MSC Federica — HPQE — position and weather

sailwx.info

Track history (hours):
 
Tides and Currents Weather Stations Pressure Air Temp Water Temp Dewpoint Dewpoint Depression Visibility Wind Speed Wind Dir Waves Ship Positions

MSC Federica

Last reported at 2016-Jun-16 17:33 UTC. Time now 2016-Jun-25 16:02 UTC.
Position S 35°15' W 072°52'.
Warning: this ship's position is 8 days out of date.

Length 294 m; draft 11.2 m.

Type: Cargo ship. MMSI: 357363000.

Date/timePositionNaut miles runAvg speedWind from/ knotsBaromVisibWave heightAir tempDewpointWater temp
2016-Jun-16 17:33S 35°15' W 072°52'1311.4
2016-Jun-16 16:25S 35°27' W 072°55'1011.3
2016-Jun-16 15:33S 35°37' W 072°58'1111.2
2016-Jun-16 14:33S 35°48' W 073°02'1111.1
2016-Jun-16 13:33S 35°58' W 073°05'1110.9
2016-Jun-16 12:33S 36°09' W 073°08'1310.7
2016-Jun-16 11:21S 36°22' W 073°12'  
2016-Jun-12 01:11S 28°34' W 071°58'2514.7
2016-Jun-11 23:27S 28°09' W 071°55'1515.1
2016-Jun-11 22:29S 27°55' W 071°52'1415.4
2016-Jun-11 21:33S 27°40' W 071°50'1615.6
2016-Jun-11 20:32S 27°25' W 071°48'1615.7
2016-Jun-11 19:33S 27°09' W 071°45'1015.6
2016-Jun-11 18:53S 26°59' W 071°43'515.8
2016-Jun-11 18:33S 26°54' W 071°43'1615.5
2016-Jun-11 17:33S 26°39' W 071°40'1615.6
2016-Jun-11 16:33S 26°23' W 071°38'1615.6
2016-Jun-11 15:33S 26°08' W 071°36'1515.4
2016-Jun-11 14:33S 25°52' W 071°33'1615.5
2016-Jun-11 13:33S 25°37' W 071°31'1515.4
2016-Jun-11 12:33S 25°22' W 071°29'1515.3
2016-Jun-11 11:33S 25°07' W 071°26'1515.4
2016-Jun-11 10:33S 24°51' W 071°24'1615.4
2016-Jun-11 09:32S 24°36' W 071°22'1515.7
2016-Jun-11 08:33S 24°21' W 071°20'1615.8
2016-Jun-11 07:33S 24°05' W 071°17'3115.3
2016-Jun-11 05:33S 23°34' W 071°12'6215.5
2016-Jun-11 01:33S 22°33' W 071°03'1716.0
2016-Jun-11 00:31S 22°17' W 071°01'3215.8
2016-Jun-10 22:28S 21°45' W 070°56'4915.8
2016-Jun-10 19:24S 20°56' W 070°49'  
Track history (hours):
 
Tides and Currents Weather Stations Pressure Air Temp Water Temp Dewpoint Dewpoint Depression Visibility Wind Speed Wind Dir Waves Ship Positions

MSC Federica

Last reported at 2016-Jun-16 17:33 UTC. Time now 2016-Jun-25 16:02 UTC.
Position S 35°15' W 072°52'.
Warning: this ship's position is 8 days out of date.

Length 294 m; draft 11.2 m.

Type: Cargo ship. MMSI: 357363000.

Date/timePositionNaut miles runAvg speedWind from/ knotsBaromVisibWave heightAir tempDewpointWater temp
2016-Jun-16 17:33S 35°15' W 072°52'1311.4
2016-Jun-16 16:25S 35°27' W 072°55'1011.3
2016-Jun-16 15:33S 35°37' W 072°58'1111.2
2016-Jun-16 14:33S 35°48' W 073°02'1111.1
2016-Jun-16 13:33S 35°58' W 073°05'1110.9
2016-Jun-16 12:33S 36°09' W 073°08'1310.7
2016-Jun-16 11:21S 36°22' W 073°12'  
2016-Jun-12 01:11S 28°34' W 071°58'2514.7
2016-Jun-11 23:27S 28°09' W 071°55'1515.1
2016-Jun-11 22:29S 27°55' W 071°52'1415.4
2016-Jun-11 21:33S 27°40' W 071°50'1615.6
2016-Jun-11 20:32S 27°25' W 071°48'1615.7
2016-Jun-11 19:33S 27°09' W 071°45'1015.6
2016-Jun-11 18:53S 26°59' W 071°43'515.8
2016-Jun-11 18:33S 26°54' W 071°43'1615.5
2016-Jun-11 17:33S 26°39' W 071°40'1615.6
2016-Jun-11 16:33S 26°23' W 071°38'1615.6
2016-Jun-11 15:33S 26°08' W 071°36'1515.4
2016-Jun-11 14:33S 25°52' W 071°33'1615.5
2016-Jun-11 13:33S 25°37' W 071°31'1515.4
2016-Jun-11 12:33S 25°22' W 071°29'1515.3
2016-Jun-11 11:33S 25°07' W 071°26'1515.4
2016-Jun-11 10:33S 24°51' W 071°24'1615.4
2016-Jun-11 09:32S 24°36' W 071°22'1515.7
2016-Jun-11 08:33S 24°21' W 071°20'1615.8
2016-Jun-11 07:33S 24°05' W 071°17'3115.3
2016-Jun-11 05:33S 23°34' W 071°12'6215.5
2016-Jun-11 01:33S 22°33' W 071°03'1716.0
2016-Jun-11 00:31S 22°17' W 071°01'3215.8
2016-Jun-10 22:28S 21°45' W 070°56'4915.8
2016-Jun-10 19:24S 20°56' W 070°49'  

Dump ship's entire track history